Time;durP1;ratioP1;P1;durP2;ratioP2;P2;SDS_P1;SDS_P2;PMS_P1;PMS_P2;Temp;Humidity;BMP_temperature;BMP_pressure;BME280_temperature;BME280_humidity;BME280_pressure;Samples;Min_cycle;Max_cycle;Signal;HPM_P1;HPM_P2
2021/03/17 00:00:26;;;;;;;1.8;1.4;;;;;;;2.39;86.3623;940.7603;;;;
2021/03/17 00:02:51;;;;;;;2.8;1.8;;;;;;;2.2;87.09375;940.7647;;;;
2021/03/17 00:05:17;;;;;;;8;2.4;;;;;;;2.23;87.44922;940.699;;;;
2021/03/17 00:07:42;;;;;;;1.3;1;;;;;;;2.35;87.22656;940.7277;;;;
2021/03/17 00:10:10;;;;;;;2.8;1.9;;;;;;;2.3;87.23926;940.7255;;;;
2021/03/17 00:12:36;;;;;;;2.9;1.9;;;;;;;2.42;87.00391;940.7114;;;;
2021/03/17 00:15:01;;;;;;;2.1;1.6;;;;;;;2.49;87.01953;940.6326;;;;
2021/03/17 00:17:26;;;;;;;2.2;1.1;;;;;;;2.48;86.55957;940.6259;;;;
2021/03/17 00:19:53;;;;;;;2.2;1.8;;;;;;;2.54;86.70508;940.6295;;;;
2021/03/17 00:22:18;;;;;;;4;1.7;;;;;;;2.62;86.53125;940.6519;;;;
2021/03/17 00:24:46;;;;;;;3.6;1.2;;;;;;;2.49;86.66016;940.6509;;;;
2021/03/17 00:27:11;;;;;;;2.1;1.6;;;;;;;2.46;86.68848;940.5582;;;;
2021/03/17 00:29:37;;;;;;;2.5;0.8;;;;;;;2.43;86.8291;940.5594;;;;
2021/03/17 00:32:02;;;;;;;2.3;1.8;;;;;;;2.5;86.79688;940.5396;;;;
2021/03/17 00:34:29;;;;;;;1.6;1.3;;;;;;;2.56;86.21582;940.5318;;;;
2021/03/17 00:36:54;;;;;;;1.2;0.9;;;;;;;2.59;86.13184;940.5388;;;;
2021/03/17 00:39:21;;;;;;;1.3;1.2;;;;;;;2.54;86.17676;940.4941;;;;
2021/03/17 00:41:46;;;;;;;1.4;1.1;;;;;;;2.44;87.03223;940.4161;;;;
2021/03/17 00:44:12;;;;;;;1.3;1.2;;;;;;;2.53;86.81348;940.3466;;;;
2021/03/17 00:46:37;;;;;;;1.4;1.3;;;;;;;2.66;85.83203;940.4124;;;;
2021/03/17 00:49:03;;;;;;;1.5;1.2;;;;;;;2.67;85.40625;940.2969;;;;
2021/03/17 00:51:29;;;;;;;3;1.8;;;;;;;2.57;86.17285;940.3382;;;;
2021/03/17 00:53:55;;;;;;;1.6;1.5;;;;;;;2.63;86.14063;940.3521;;;;
2021/03/17 00:56:20;;;;;;;2.4;2;;;;;;;2.69;85.87109;940.3522;;;;
2021/03/17 00:58:46;;;;;;;4.7;1.9;;;;;;;2.73;85.52344;940.2;;;;
2021/03/17 01:01:11;;;;;;;2.8;1.9;;;;;;;2.66;85.37305;940.3138;;;;
2021/03/17 01:03:38;;;;;;;2.1;1.8;;;;;;;2.54;86.16699;940.2994;;;;
2021/03/17 01:06:03;;;;;;;2.5;1.6;;;;;;;2.45;86.57422;940.2468;;;;
2021/03/17 01:08:29;;;;;;;3;1.8;;;;;;;2.58;86.47754;940.2144;;;;
2021/03/17 01:10:54;;;;;;;1.8;1.5;;;;;;;2.71;86.01172;940.1605;;;;
2021/03/17 01:13:21;;;;;;;1.9;1.4;;;;;;;2.78;85.48828;940.0667;;;;
2021/03/17 01:15:49;;;;;;;4;2;;;;;;;2.82;84.91211;940.0569;;;;
2021/03/17 01:18:14;;;;;;;4.3;2.7;;;;;;;2.83;84.54199;940.0452;;;;
2021/03/17 01:20:39;;;;;;;9.1;4.3;;;;;;;2.86;84.57324;940.0051;;;;
2021/03/17 01:23:04;;;;;;;4.8;3.4;;;;;;;2.87;84.68555;939.9983;;;;
2021/03/17 01:25:30;;;;;;;8.8;2.7;;;;;;;2.84;84.41113;939.9358;;;;
2021/03/17 01:27:55;;;;;;;6.5;2.5;;;;;;;2.85;84.00684;939.8715;;;;
2021/03/17 01:30:20;;;;;;;3.7;2.2;;;;;;;2.85;84.00879;939.856;;;;
2021/03/17 01:32:48;;;;;;;3.8;2.7;;;;;;;2.76;84.22852;939.8403;;;;
2021/03/17 01:35:13;;;;;;;3.6;1.9;;;;;;;2.68;84.75;939.7961;;;;
2021/03/17 01:37:40;;;;;;;3.4;2.4;;;;;;;2.73;84.86035;939.7633;;;;
2021/03/17 01:40:05;;;;;;;5.3;2.4;;;;;;;2.63;85.43457;939.699;;;;
2021/03/17 01:42:31;;;;;;;1.5;1.3;;;;;;;2.49;86.30176;939.6831;;;;
2021/03/17 01:44:56;;;;;;;2.1;1.3;;;;;;;2.54;86.67188;939.6769;;;;
2021/03/17 01:47:21;;;;;;;2;1.2;;;;;;;2.62;86.52051;939.707;;;;
2021/03/17 01:49:46;;;;;;;1.9;1.4;;;;;;;2.54;85.90723;939.7009;;;;
2021/03/17 01:52:11;;;;;;;1.3;1.1;;;;;;;2.52;85.75879;939.6539;;;;
2021/03/17 01:54:37;;;;;;;1.8;1.3;;;;;;;2.53;85.68359;939.6608;;;;
2021/03/17 01:57:02;;;;;;;1.3;1.2;;;;;;;2.33;86.00195;939.6841;;;;
2021/03/17 01:59:29;;;;;;;3.5;2.1;;;;;;;2.39;86.41797;939.5847;;;;
2021/03/17 02:01:54;;;;;;;2;1.6;;;;;;;2.46;86.49805;939.5681;;;;
2021/03/17 02:04:19;;;;;;;1.9;1.5;;;;;;;2.5;86.22559;939.5185;;;;
2021/03/17 02:06:44;;;;;;;1.5;1.2;;;;;;;2.49;86.24609;939.4313;;;;
2021/03/17 02:09:09;;;;;;;1.3;0.8;;;;;;;2.46;85.87109;939.4377;;;;
2021/03/17 02:11:34;;;;;;;1;0.6;;;;;;;2.25;85.92969;939.4632;;;;
2021/03/17 02:14:00;;;;;;;0.5;0.5;;;;;;;2.27;86.31543;939.3998;;;;
2021/03/17 02:16:25;;;;;;;0.5;0.5;;;;;;;2.3;86.32129;939.3515;;;;
2021/03/17 02:18:51;;;;;;;1.2;0.9;;;;;;;2.37;86.16797;939.3412;;;;
2021/03/17 02:21:16;;;;;;;3.1;0.5;;;;;;;2.37;86.25586;939.275;;;;
2021/03/17 02:23:42;;;;;;;0.8;0.7;;;;;;;2.44;86.4834;939.3184;;;;
2021/03/17 02:26:09;;;;;;;0.7;0.6;;;;;;;2.5;86.34863;939.3016;;;;
2021/03/17 02:28:34;;;;;;;0.8;0.6;;;;;;;2.49;86.17871;939.2776;;;;
2021/03/17 02:31:52;;;;;;;0.7;0.5;;;;;;;2.45;86.18262;939.3108;;;;
2021/03/17 02:34:17;;;;;;;3.1;0.8;;;;;;;2.53;85.8291;939.2788;;;;
2021/03/17 02:36:42;;;;;;;0.5;0.5;;;;;;;2.57;85.5791;939.2495;;;;
2021/03/17 02:39:07;;;;;;;0.8;0.7;;;;;;;2.58;85.11133;939.2076;;;;
2021/03/17 02:41:32;;;;;;;0.5;0.5;;;;;;;2.47;84.64941;939.1479;;;;
2021/03/17 02:43:58;;;;;;;0.3;0.3;;;;;;;2.23;85.7334;939.1842;;;;
2021/03/17 02:46:23;;;;;;;0.8;0.8;;;;;;;2.19;85.91699;939.1841;;;;
2021/03/17 02:48:48;;;;;;;0.5;0.5;;;;;;;2.23;86.39453;939.218;;;;
2021/03/17 02:51:13;;;;;;;0.9;0.6;;;;;;;2.34;86.21484;939.2068;;;;
2021/03/17 02:53:40;;;;;;;0.7;0.7;;;;;;;2.37;86.13281;939.1672;;;;
2021/03/17 02:56:06;;;;;;;0.5;0.4;;;;;;;2.39;85.95508;939.1609;;;;
2021/03/17 02:58:31;;;;;;;1.6;1;;;;;;;2.26;86.08594;939.1949;;;;
2021/03/17 03:00:59;;;;;;;0.7;0.7;;;;;;;2.3;86.26367;939.2036;;;;
2021/03/17 03:03:24;;;;;;;0.6;0.6;;;;;;;2.23;86.40723;939.2347;;;;
2021/03/17 03:05:49;;;;;;;0.4;0.4;;;;;;;2.13;86.44141;939.0919;;;;
2021/03/17 03:08:14;;;;;;;2.4;0.8;;;;;;;2;86.8291;939.1783;;;;
2021/03/17 03:10:41;;;;;;;1.2;0.7;;;;;;;1.95;87.46777;939.1163;;;;
2021/03/17 03:13:07;;;;;;;0.6;0.6;;;;;;;1.99;87.55566;939.1761;;;;
2021/03/17 03:15:32;;;;;;;0.8;0.8;;;;;;;2.03;87.80859;939.032;;;;
2021/03/17 03:18:00;;;;;;;0.4;0.4;;;;;;;2.08;87.62988;939.086;;;;
2021/03/17 03:20:25;;;;;;;1.2;1;;;;;;;2.05;87.60156;939.0187;;;;
2021/03/17 03:22:50;;;;;;;0.5;0.5;;;;;;;2.21;87.47852;939.0438;;;;
2021/03/17 03:25:16;;;;;;;0.7;0.6;;;;;;;2.25;87.38574;938.9944;;;;
2021/03/17 03:27:41;;;;;;;0.6;0.6;;;;;;;2.32;87.30859;938.9678;;;;
2021/03/17 03:30:10;;;;;;;0.6;0.6;;;;;;;2.33;86.9541;938.9811;;;;
2021/03/17 03:32:35;;;;;;;0.9;0.7;;;;;;;2.41;86.80078;939.0064;;;;
2021/03/17 03:35:01;;;;;;;0.4;0.3;;;;;;;2.46;86.30762;938.9459;;;;
2021/03/17 03:37:27;;;;;;;1.1;0.7;;;;;;;2.4;86.50781;938.9633;;;;
2021/03/17 03:39:56;;;;;;;3.8;0.5;;;;;;;2.49;86.16699;938.9532;;;;
2021/03/17 03:42:24;;;;;;;0.6;0.6;;;;;;;2.32;86.60352;938.9584;;;;
2021/03/17 03:44:49;;;;;;;0.5;0.5;;;;;;;2.38;86.04492;938.9797;;;;
2021/03/17 03:47:17;;;;;;;0.6;0.5;;;;;;;2.42;86.00879;938.9011;;;;
2021/03/17 03:49:42;;;;;;;0.9;0.6;;;;;;;2.41;86.06152;938.9391;;;;
2021/03/17 03:52:10;;;;;;;1.6;0.8;;;;;;;2.36;86.71094;938.9067;;;;
2021/03/17 03:54:35;;;;;;;0.4;0.4;;;;;;;2.42;86.15234;938.8931;;;;
2021/03/17 03:57:01;;;;;;;1.3;0.8;;;;;;;2.29;86.22949;938.9717;;;;
2021/03/17 03:59:26;;;;;;;0.7;0.7;;;;;;;2.31;86.56738;938.8567;;;;
2021/03/17 04:02:30;;;;;;;1;0.6;;;;;;;2.37;86.34668;938.9333;;;;
2021/03/17 04:04:55;;;;;;;1.2;0.9;;;;;;;2.32;86.51563;938.9319;;;;
2021/03/17 04:07:23;;;;;;;1.3;0.8;;;;;;;2.44;86.40332;938.8766;;;;
2021/03/17 04:09:48;;;;;;;1.2;1.1;;;;;;;2.3;86.38867;938.8707;;;;
2021/03/17 04:12:16;;;;;;;0.6;0.6;;;;;;;2.33;86.02246;938.9243;;;;
2021/03/17 04:14:41;;;;;;;1.3;0.7;;;;;;;2.37;85.83008;938.8671;;;;
2021/03/17 04:17:06;;;;;;;0.6;0.6;;;;;;;2.34;85.56543;938.9397;;;;
2021/03/17 04:19:32;;;;;;;1;1;;;;;;;2.36;85.43457;938.9295;;;;
2021/03/17 04:21:57;;;;;;;0.6;0.6;;;;;;;2.09;86.35547;938.8333;;;;
2021/03/17 04:24:22;;;;;;;1.7;1.2;;;;;;;2.07;86.90039;938.845;;;;
2021/03/17 04:26:47;;;;;;;1.5;0.9;;;;;;;2.19;86.56641;938.8699;;;;
2021/03/17 04:29:12;;;;;;;1;0.8;;;;;;;2.24;86.0957;938.8211;;;;
2021/03/17 04:31:38;;;;;;;1.4;1;;;;;;;2.22;86.36035;938.825;;;;
2021/03/17 04:34:03;;;;;;;1.2;1;;;;;;;2.25;85.8623;938.8027;;;;
2021/03/17 04:36:28;;;;;;;2;1.3;;;;;;;2.12;86.21582;938.8786;;;;
2021/03/17 04:38:54;;;;;;;0.8;0.6;;;;;;;1.94;87.46582;938.9381;;;;
2021/03/17 04:41:19;;;;;;;1.9;1.3;;;;;;;2.04;87.58691;938.9788;;;;
2021/03/17 04:43:45;;;;;;;1.3;1.2;;;;;;;2.01;87.9502;938.9863;;;;
2021/03/17 04:46:11;;;;;;;2;1.5;;;;;;;2.11;87.57031;939.0323;;;;
2021/03/17 04:48:37;;;;;;;2.1;1.4;;;;;;;2.22;87.03223;938.8627;;;;
2021/03/17 04:51:02;;;;;;;3;1.3;;;;;;;2.17;87.11133;938.9554;;;;
2021/03/17 04:53:29;;;;;;;1.2;1.1;;;;;;;2.13;87.21387;938.9883;;;;
2021/03/17 04:55:55;;;;;;;1.6;1.5;;;;;;;2.26;86.74902;939.0412;;;;
2021/03/17 04:58:21;;;;;;;2.8;1.4;;;;;;;2.21;86.91699;939.0725;;;;
2021/03/17 05:00:46;;;;;;;0.7;0.7;;;;;;;2.28;86.88672;939.0614;;;;
2021/03/17 05:03:12;;;;;;;1.7;1.2;;;;;;;2.36;86.65723;939.0812;;;;
2021/03/17 05:05:39;;;;;;;1.5;0.7;;;;;;;2.47;86.33203;939.0176;;;;
2021/03/17 05:08:02;;;;;;;1.9;1.6;;;;;;;2.49;86.01074;938.8738;;;;
2021/03/17 05:10:29;;;;;;;1.2;1.1;;;;;;;2.42;86.32129;938.9292;;;;
2021/03/17 05:12:54;;;;;;;1.7;1.2;;;;;;;2.41;86.29883;938.9338;;;;
2021/03/17 05:15:25;;;;;;;2.6;1.9;;;;;;;2.33;86.49512;938.9252;;;;
2021/03/17 05:17:50;;;;;;;2.5;1.9;;;;;;;2.38;86.8291;938.9274;;;;
2021/03/17 05:20:17;;;;;;;2.6;1.5;;;;;;;2.33;86.68555;938.9426;;;;
2021/03/17 05:22:42;;;;;;;1.7;1.6;;;;;;;2.26;87.48828;938.9397;;;;
2021/03/17 05:25:15;;;;;;;1.6;1.4;;;;;;;2.29;87.57227;938.925;;;;
2021/03/17 05:27:40;;;;;;;2.5;1.2;;;;;;;2.24;87.64063;938.9342;;;;
2021/03/17 05:30:05;;;;;;;2;1.5;;;;;;;2.4;86.91309;938.9443;;;;
2021/03/17 05:32:34;;;;;;;1.5;1.4;;;;;;;2.49;86.34668;938.9249;;;;
2021/03/17 05:34:59;;;;;;;3.4;2;;;;;;;2.53;85.88574;938.8983;;;;
2021/03/17 05:37:24;;;;;;;3.6;1.3;;;;;;;2.32;86.83789;938.9294;;;;
2021/03/17 05:39:49;;;;;;;3.7;1.4;;;;;;;2.35;87.04688;938.8806;;;;
2021/03/17 05:42:15;;;;;;;2.1;1.7;;;;;;;2.51;86.49805;938.8961;;;;
2021/03/17 05:44:39;;;;;;;1.9;1.5;;;;;;;2.4;86.38477;938.8658;;;;
2021/03/17 05:47:05;;;;;;;2.3;1.7;;;;;;;2.39;86.83105;939.0047;;;;
2021/03/17 05:49:31;;;;;;;2.6;1.8;;;;;;;2.35;86.83398;938.9828;;;;
2021/03/17 05:51:57;;;;;;;1.6;1.5;;;;;;;2.45;86.66406;938.9634;;;;
2021/03/17 05:54:23;;;;;;;3.6;1.9;;;;;;;2.55;86.52539;938.9642;;;;
2021/03/17 05:56:51;;;;;;;3;1.3;;;;;;;2.49;86.20117;938.9807;;;;
2021/03/17 05:59:16;;;;;;;2;1.5;;;;;;;2.34;86.9873;939.0058;;;;
2021/03/17 06:01:43;;;;;;;2.1;1.4;;;;;;;2.26;87.7793;939.0427;;;;
2021/03/17 06:04:08;;;;;;;2.2;1.7;;;;;;;2.29;87.67285;939.0259;;;;
2021/03/17 06:06:33;;;;;;;6.7;1.5;;;;;;;2.36;87.78809;938.9564;;;;
2021/03/17 06:08:58;;;;;;;2.3;2;;;;;;;2.43;87.04199;939.0225;;;;
2021/03/17 06:11:25;;;;;;;4.5;2;;;;;;;2.47;87.04883;939.0798;;;;
2021/03/17 06:13:51;;;;;;;2.4;1.9;;;;;;;2.6;86.61523;938.9128;;;;
2021/03/17 06:16:18;;;;;;;1;0.9;;;;;;;2.64;86.29785;938.9902;;;;
2021/03/17 06:18:44;;;;;;;1.7;1.3;;;;;;;2.64;86.625;939.0297;;;;
2021/03/17 06:21:09;;;;;;;1.9;1.6;;;;;;;2.72;86.58496;939.0698;;;;
2021/03/17 06:23:34;;;;;;;2.1;1.5;;;;;;;2.8;86.07422;938.9667;;;;
2021/03/17 06:25:59;;;;;;;2.2;1.8;;;;;;;2.94;85.6875;939;;;;
2021/03/17 06:28:24;;;;;;;3;1.8;;;;;;;3.04;85.10156;939.0417;;;;
2021/03/17 06:30:53;;;;;;;4.4;2.4;;;;;;;3.22;84.30664;939.0167;;;;
2021/03/17 06:33:18;;;;;;;3.6;2.2;;;;;;;3.23;83.74707;939.0438;;;;
2021/03/17 06:35:43;;;;;;;3.8;2.4;;;;;;;2.93;85.0127;939.0697;;;;
2021/03/17 06:38:08;;;;;;;2.1;1.8;;;;;;;3.13;84.54492;939.0491;;;;
2021/03/17 06:40:37;;;;;;;3.4;2.3;;;;;;;3.29;83.8252;939.0437;;;;
2021/03/17 06:43:01;;;;;;;2.5;1.8;;;;;;;3.03;84.08984;939.1108;;;;
2021/03/17 06:45:27;;;;;;;3.8;2.5;;;;;;;3.1;83.94727;938.9892;;;;
2021/03/17 06:47:52;;;;;;;2.9;2.1;;;;;;;3.04;84.09277;939.097;;;;
2021/03/17 06:50:17;;;;;;;5;3.3;;;;;;;3.2;83.9668;939.0975;;;;
2021/03/17 06:52:44;;;;;;;3.5;2.4;;;;;;;3.33;83.6543;939.1584;;;;
2021/03/17 06:55:08;;;;;;;4.1;2.5;;;;;;;3.35;83.32129;939.1847;;;;
2021/03/17 06:57:34;;;;;;;2.7;2.1;;;;;;;3.32;83.11426;939.17;;;;
2021/03/17 06:59:59;;;;;;;4.3;2.4;;;;;;;3.47;82.81641;939.1696;;;;
2021/03/17 07:02:25;;;;;;;5.1;2.2;;;;;;;3.17;83.11914;939.1855;;;;
2021/03/17 07:04:50;;;;;;;2.6;1.6;;;;;;;3.15;83.27148;939.198;;;;
2021/03/17 07:07:18;;;;;;;3;2;;;;;;;3.07;84.2207;939.1522;;;;
2021/03/17 07:09:40;;;;;;;4.5;2.5;;;;;;;3.08;84.55859;939.1557;;;;
2021/03/17 07:12:05;;;;;;;3.5;2.2;;;;;;;3.04;84.8877;939.1597;;;;
2021/03/17 07:14:30;;;;;;;3.9;2.4;;;;;;;2.94;85.7207;939.169;;;;
2021/03/17 07:16:57;;;;;;;1.8;1.5;;;;;;;2.99;85.7207;939.1568;;;;
2021/03/17 07:19:21;;;;;;;2.5;1.7;;;;;;;3.22;85.31738;939.2944;;;;
2021/03/17 07:21:46;;;;;;;2.3;1.7;;;;;;;3.24;84.97461;939.2285;;;;
2021/03/17 07:24:11;;;;;;;1.9;1.5;;;;;;;3.4;84.26367;939.2815;;;;
2021/03/17 07:26:36;;;;;;;1.8;1.5;;;;;;;3.44;83.64453;939.2803;;;;
2021/03/17 07:29:01;;;;;;;1;0.8;;;;;;;3.28;83.32031;939.3016;;;;
2021/03/17 07:31:27;;;;;;;1.1;1;;;;;;;3.35;83.28809;939.3576;;;;
2021/03/17 07:33:52;;;;;;;1.5;1.3;;;;;;;3.32;82.96777;939.3848;;;;
2021/03/17 07:36:18;;;;;;;2.2;1.1;;;;;;;3.16;83.58691;939.4855;;;;
2021/03/17 07:38:43;;;;;;;1.3;1;;;;;;;3.18;83.96289;939.5705;;;;
2021/03/17 07:41:08;;;;;;;0.8;0.8;;;;;;;3.13;84.18945;939.5898;;;;
2021/03/17 07:43:34;;;;;;;0.8;0.8;;;;;;;3.12;84.32031;939.6239;;;;
2021/03/17 07:45:58;;;;;;;0.3;0.3;;;;;;;2.8;85.03223;939.7104;;;;
2021/03/17 07:48:24;;;;;;;0.8;0.3;;;;;;;2.2;87.67676;939.6085;;;;
2021/03/17 07:50:50;;;;;;;0.3;0.3;;;;;;;2.02;88.79199;939.6878;;;;
2021/03/17 07:53:15;;;;;;;0.7;0.6;;;;;;;2.02;88.9502;939.7352;;;;
2021/03/17 07:55:41;;;;;;;0.6;0.5;;;;;;;2.12;88.74707;939.8197;;;;
2021/03/17 07:58:06;;;;;;;2.2;1;;;;;;;2.17;88.28711;939.7958;;;;
2021/03/17 08:00:33;;;;;;;0.6;0.6;;;;;;;1.98;88.85156;939.8038;;;;
2021/03/17 08:02:58;;;;;;;1.3;0.9;;;;;;;1.97;88.77148;939.8403;;;;
2021/03/17 08:05:23;;;;;;;1.2;1.1;;;;;;;2.37;88.49609;939.8225;;;;
2021/03/17 08:07:51;;;;;;;1.3;0.8;;;;;;;2.49;87.40039;939.8116;;;;
2021/03/17 08:10:16;;;;;;;1.6;0.6;;;;;;;2.79;86.6875;939.8624;;;;
2021/03/17 08:12:43;;;;;;;1.2;1.1;;;;;;;3.02;85.6582;939.8322;;;;
2021/03/17 08:15:08;;;;;;;1.9;1.1;;;;;;;3.25;84.6377;939.8417;;;;
2021/03/17 08:17:33;;;;;;;1.4;0.9;;;;;;;3.64;82.66113;939.8794;;;;
2021/03/17 08:19:58;;;;;;;9.1;3.1;;;;;;;3.76;81.86328;939.842;;;;
2021/03/17 08:22:26;;;;;;;4.1;2.8;;;;;;;3.79;81.51953;939.8879;;;;
2021/03/17 08:24:51;;;;;;;2;1.3;;;;;;;3.15;82.28516;939.9368;;;;
2021/03/17 08:27:18;;;;;;;1.5;0.9;;;;;;;3.45;82.55664;939.9813;;;;
2021/03/17 08:29:43;;;;;;;0.7;0.6;;;;;;;3.48;82.62891;939.8736;;;;
2021/03/17 08:32:11;;;;;;;2.8;0.9;;;;;;;3.59;82.22363;939.9023;;;;
2021/03/17 08:34:36;;;;;;;0.9;0.8;;;;;;;3.38;81.71191;939.9247;;;;
2021/03/17 08:37:01;;;;;;;1.2;1;;;;;;;3.61;82.23828;939.9727;;;;
2021/03/17 08:39:26;;;;;;;1.7;1.1;;;;;;;3.84;80.93262;939.983;;;;
2021/03/17 08:41:51;;;;;;;2.2;1.2;;;;;;;3.7;80.35645;939.8633;;;;
2021/03/17 08:44:16;;;;;;;1.6;1.3;;;;;;;3.15;82.70996;939.9917;;;;
2021/03/17 08:46:42;;;;;;;2.2;1.8;;;;;;;3.2;83.4502;939.9984;;;;
2021/03/17 08:49:07;;;;;;;1.8;1.5;;;;;;;3.39;82.4209;940.0494;;;;
2021/03/17 08:51:32;;;;;;;3.1;1.8;;;;;;;3.29;81.94141;939.9495;;;;
2021/03/17 08:53:57;;;;;;;2;1.6;;;;;;;3.34;82.39844;940.0364;;;;
2021/03/17 08:56:22;;;;;;;3.2;2.3;;;;;;;3.45;81.33203;939.9041;;;;
2021/03/17 08:58:48;;;;;;;4;2.4;;;;;;;3.42;80.76563;939.9967;;;;
2021/03/17 09:01:13;;;;;;;4.6;2.3;;;;;;;3.57;79.80273;940.0636;;;;
2021/03/17 09:03:38;;;;;;;4.4;2.2;;;;;;;3.67;79.71094;939.9694;;;;
2021/03/17 09:06:03;;;;;;;5.3;2.4;;;;;;;3.71;79.71777;939.9653;;;;
2021/03/17 09:08:28;;;;;;;5.5;2.6;;;;;;;3.92;78.27246;940.012;;;;
2021/03/17 09:10:53;;;;;;;4.2;2.8;;;;;;;4.21;76.25684;939.9888;;;;
2021/03/17 09:13:18;;;;;;;10.9;2.6;;;;;;;4.47;74.2207;940.0184;;;;
2021/03/17 09:15:49;;;;;;;5.1;2.5;;;;;;;4.78;73.00195;940.046;;;;
2021/03/17 09:18:13;;;;;;;4.9;2.4;;;;;;;4.6;73.96191;939.9828;;;;
2021/03/17 09:20:40;;;;;;;2.6;1.8;;;;;;;4.57;73.01074;940.0064;;;;
2021/03/17 09:23:05;;;;;;;3.4;2.2;;;;;;;4.74;71.48438;939.9973;;;;
2021/03/17 09:25:30;;;;;;;3.2;1.8;;;;;;;4.63;71.10547;939.9793;;;;
2021/03/17 09:27:55;;;;;;;2.9;1.9;;;;;;;4.45;72.78711;939.9603;;;;
2021/03/17 09:30:21;;;;;;;3.3;2.2;;;;;;;4.58;73.20215;939.9536;;;;
2021/03/17 09:32:46;;;;;;;3;1.8;;;;;;;4.79;72.3252;939.9041;;;;
2021/03/17 09:35:11;;;;;;;3.3;2.2;;;;;;;4.62;71.20605;939.957;;;;
2021/03/17 09:37:37;;;;;;;3.1;1.9;;;;;;;4.78;70.81445;940.0136;;;;
2021/03/17 09:40:02;;;;;;;2.7;2.1;;;;;;;5.19;71.86426;940.0103;;;;
2021/03/17 09:42:27;;;;;;;4.9;2.1;;;;;;;5.52;70.15918;939.9944;;;;
2021/03/17 09:44:52;;;;;;;4.7;2;;;;;;;5.41;69.33008;940.0314;;;;
2021/03/17 09:47:19;;;;;;;4.7;1.9;;;;;;;5.95;68.5127;940.0652;;;;
2021/03/17 09:49:44;;;;;;;2;1.5;;;;;;;6.02;66.50293;939.9839;;;;
2021/03/17 09:52:13;;;;;;;3.1;2;;;;;;;5.52;68.64844;940.0048;;;;
2021/03/17 09:54:36;;;;;;;2.2;1.9;;;;;;;5.72;68.79297;939.9985;;;;
2021/03/17 09:57:02;;;;;;;3.9;1.8;;;;;;;6.6;66.89844;940.0418;;;;
2021/03/17 09:59:27;;;;;;;6.3;2.1;;;;;;;6.79;64.63086;940.0242;;;;
2021/03/17 10:01:53;;;;;;;3.6;1.3;;;;;;;7.06;64.19434;939.9587;;;;
2021/03/17 10:04:18;;;;;;;1.6;1.2;;;;;;;6.69;64.02539;940.0799;;;;
2021/03/17 10:06:45;;;;;;;2.6;1.8;;;;;;;6.73;65.51367;940.1245;;;;
2021/03/17 10:09:10;;;;;;;3;1.7;;;;;;;6.13;67.73926;940.0929;;;;
2021/03/17 10:11:38;;;;;;;2.7;1.7;;;;;;;6.49;65.51172;940.0609;;;;
2021/03/17 10:14:05;;;;;;;3.1;2;;;;;;;6.57;65.89746;940.0306;;;;
2021/03/17 10:16:30;;;;;;;4.1;2.6;;;;;;;6.6;66.12793;940.0622;;;;
2021/03/17 10:18:56;;;;;;;3.8;2.4;;;;;;;6.75;65.46094;940.0421;;;;
2021/03/17 10:21:21;;;;;;;5.8;2.6;;;;;;;6.99;65.23828;939.9788;;;;
2021/03/17 10:23:46;;;;;;;10.6;5.3;;;;;;;6.28;66.37305;939.9512;;;;
2021/03/17 10:26:13;;;;;;;3.2;2.4;;;;;;;5.78;65.40234;939.9717;;;;
2021/03/17 10:28:38;;;;;;;3.9;2.1;;;;;;;5.74;67.67969;939.9684;;;;
2021/03/17 10:31:04;;;;;;;2.3;2;;;;;;;5.76;67.97461;939.9562;;;;
2021/03/17 10:33:29;;;;;;;4.9;3.2;;;;;;;5.54;68.29004;940.0078;;;;
2021/03/17 10:35:55;;;;;;;5.3;3.3;;;;;;;5.38;69.45996;940.015;;;;
2021/03/17 10:38:21;;;;;;;6.8;2.4;;;;;;;5.61;69.38477;940.0931;;;;
2021/03/17 10:40:47;;;;;;;7.2;2.8;;;;;;;5.5;70.01074;940.0121;;;;
2021/03/17 10:43:12;;;;;;;3.7;2.3;;;;;;;5.23;69.35742;939.9852;;;;
2021/03/17 10:45:38;;;;;;;3.6;1.9;;;;;;;5.21;69.6123;940.0584;;;;
2021/03/17 10:48:03;;;;;;;3.3;2.1;;;;;;;5.15;67.32617;939.9459;;;;
2021/03/17 10:50:31;;;;;;;3.5;2.1;;;;;;;5.39;66.75391;940.024;;;;
2021/03/17 10:52:56;;;;;;;2.1;1.8;;;;;;;5.58;66.68164;940.0262;;;;
2021/03/17 10:55:25;;;;;;;3.8;2.1;;;;;;;5.47;66.90137;940.0229;;;;
2021/03/17 10:57:50;;;;;;;3.4;1.9;;;;;;;5.64;66.95117;940.0198;;;;
2021/03/17 11:00:15;;;;;;;2;1.8;;;;;;;5.33;68.23438;940.0405;;;;
2021/03/17 11:02:41;;;;;;;2.2;1.5;;;;;;;5.5;69.49023;940.0428;;;;
2021/03/17 11:05:06;;;;;;;3.9;2.6;;;;;;;5.09;70.51758;940.0433;;;;
2021/03/17 11:07:31;;;;;;;4.5;2.7;;;;;;;5.18;70.21777;939.9856;;;;
2021/03/17 11:09:56;;;;;;;3.1;1.8;;;;;;;5.34;69.0918;939.9238;;;;
2021/03/17 11:12:21;;;;;;;4;2.1;;;;;;;5.86;70.00098;939.9531;;;;
2021/03/17 11:14:46;;;;;;;3.3;1.9;;;;;;;6.51;68.11621;939.9578;;;;
2021/03/17 11:17:12;;;;;;;5.4;2.7;;;;;;;7.01;66.18066;939.9448;;;;
2021/03/17 11:19:37;;;;;;;5.4;2.4;;;;;;;7.25;63.38574;939.8522;;;;
2021/03/17 11:22:02;;;;;;;2.8;1.7;;;;;;;7.15;64.0957;939.9105;;;;
2021/03/17 11:24:27;;;;;;;2.3;1.9;;;;;;;7.45;62.17969;939.8691;;;;
2021/03/17 11:26:53;;;;;;;3.1;2.1;;;;;;;7.45;62.49707;939.8643;;;;
2021/03/17 11:29:18;;;;;;;4.7;1.9;;;;;;;6.63;63.62012;939.8853;;;;
2021/03/17 11:31:45;;;;;;;2.3;1.8;;;;;;;7.2;62.52637;939.887;;;;
2021/03/17 11:34:10;;;;;;;5;1.9;;;;;;;7.5;61.67578;939.8258;;;;
2021/03/17 11:36:35;;;;;;;3.6;1.8;;;;;;;7.46;61.44238;939.7235;;;;
2021/03/17 11:39:00;;;;;;;3.7;2;;;;;;;7.03;61.49512;939.8378;;;;
2021/03/17 11:41:25;;;;;;;3.4;2;;;;;;;7.1;61.89063;939.8142;;;;
2021/03/17 11:43:55;;;;;;;2.9;1.9;;;;;;;7.6;60.94238;939.7102;;;;
2021/03/17 11:46:20;;;;;;;2.9;1.8;;;;;;;7.4;60.7207;939.7551;;;;
2021/03/17 11:48:45;;;;;;;3.1;2;;;;;;;7.03;62.70703;939.7285;;;;
2021/03/17 11:51:11;;;;;;;2.4;1.6;;;;;;;6.97;62.58398;939.8525;;;;
2021/03/17 11:53:39;;;;;;;9.2;2.3;;;;;;;7.01;63.45313;939.8033;;;;
2021/03/17 11:56:09;;;;;;;2.4;1.9;;;;;;;6.78;61.57227;939.8688;;;;
2021/03/17 11:58:35;;;;;;;1.5;1.4;;;;;;;6.99;62.32813;939.7952;;;;
2021/03/17 12:01:02;;;;;;;1.8;1.5;;;;;;;6.88;62.15234;939.8699;;;;
2021/03/17 12:03:25;;;;;;;2.1;1.5;;;;;;;7.05;62.10938;939.8849;;;;
2021/03/17 12:05:51;;;;;;;1.7;1.6;;;;;;;7.18;61.78906;939.8558;;;;
2021/03/17 12:08:15;;;;;;;7.6;2.2;;;;;;;7.22;62.19043;939.8506;;;;
2021/03/17 12:10:41;;;;;;;2.5;2;;;;;;;7.08;62.71289;939.8618;;;;
2021/03/17 12:13:06;;;;;;;1.7;1.3;;;;;;;6.79;61.83301;939.9196;;;;
2021/03/17 12:15:39;;;;;;;2.8;1.5;;;;;;;6.47;61.42773;939.8223;;;;
2021/03/17 12:18:05;;;;;;;2.7;1.7;;;;;;;6.04;62.99219;939.7805;;;;
2021/03/17 12:20:32;;;;;;;2.4;1.6;;;;;;;5.72;65.17969;939.8461;;;;
2021/03/17 12:22:56;;;;;;;1.7;1.5;;;;;;;5.65;66.98633;939.8613;;;;
2021/03/17 12:25:21;;;;;;;1.8;1.5;;;;;;;5.56;67.36719;939.8006;;;;
2021/03/17 12:27:46;;;;;;;2.6;1.6;;;;;;;5.64;67.13184;939.7725;;;;
2021/03/17 12:30:13;;;;;;;1;0.9;;;;;;;5.83;66.12207;939.8219;;;;
2021/03/17 12:32:38;;;;;;;6.7;1.7;;;;;;;5.67;66.93262;939.7892;;;;
2021/03/17 12:35:03;;;;;;;1.8;1.4;;;;;;;5.92;68.27148;939.7427;;;;
2021/03/17 12:37:29;;;;;;;2.1;1.6;;;;;;;5.93;65.45996;939.8378;;;;
2021/03/17 12:39:54;;;;;;;2.1;1.6;;;;;;;5.78;66.21582;939.8209;;;;
2021/03/17 12:42:19;;;;;;;1.4;1.3;;;;;;;5.54;66.70996;939.8158;;;;
2021/03/17 12:44:45;;;;;;;1.9;1.4;;;;;;;5.76;65.88672;939.841;;;;
2021/03/17 12:47:11;;;;;;;1.4;1;;;;;;;5.75;65.60156;939.8627;;;;
2021/03/17 12:49:36;;;;;;;2.4;1.4;;;;;;;5.58;64.93164;939.787;;;;
2021/03/17 12:52:01;;;;;;;1.9;0.7;;;;;;;5.26;65.17773;939.795;;;;
2021/03/17 12:54:27;;;;;;;1.4;1.2;;;;;;;5.05;66.30664;939.8314;;;;
2021/03/17 12:56:53;;;;;;;1.4;1;;;;;;;4.68;67.87109;939.8384;;;;
2021/03/17 12:59:18;;;;;;;2.1;1.1;;;;;;;4.81;68.57813;939.805;;;;
2021/03/17 13:01:43;;;;;;;0.8;0.8;;;;;;;4.41;66.37598;939.7712;;;;
2021/03/17 13:04:08;;;;;;;1;0.8;;;;;;;4.24;67.35059;939.7878;;;;
2021/03/17 13:06:36;;;;;;;3.2;1.3;;;;;;;4.24;68.80176;939.8527;;;;
2021/03/17 13:09:04;;;;;;;1.4;1.2;;;;;;;4.3;68.05664;939.7859;;;;
2021/03/17 13:11:26;;;;;;;0.8;0.8;;;;;;;4.34;67.79395;939.7913;;;;
2021/03/17 13:13:53;;;;;;;1.8;1.2;;;;;;;4.41;67.77148;939.8075;;;;
2021/03/17 13:16:18;;;;;;;2.6;1;;;;;;;4.45;66.47168;939.7656;;;;
2021/03/17 13:18:45;;;;;;;1.6;0.8;;;;;;;4.46;65.14648;939.6272;;;;
2021/03/17 13:21:10;;;;;;;1.5;0.9;;;;;;;4.57;64.46484;939.7114;;;;
2021/03/17 13:23:36;;;;;;;2.5;1;;;;;;;4.39;66.12402;939.7283;;;;
2021/03/17 13:26:01;;;;;;;1.5;1;;;;;;;4.63;64.67383;939.7072;;;;
2021/03/17 13:28:27;;;;;;;0.9;0.7;;;;;;;4.95;65.26563;939.7332;;;;
2021/03/17 13:30:52;;;;;;;1;0.9;;;;;;;5.14;65.29492;939.7112;;;;
2021/03/17 13:33:20;;;;;;;1.2;0.9;;;;;;;4.98;66.09277;939.678;;;;
2021/03/17 13:35:45;;;;;;;2;1.3;;;;;;;4.65;68.89063;939.6393;;;;
2021/03/17 13:38:10;;;;;;;1.8;1.3;;;;;;;4.83;70.18164;939.6842;;;;
2021/03/17 13:40:36;;;;;;;1.7;1.4;;;;;;;4.82;69.5166;939.7156;;;;
2021/03/17 13:43:07;;;;;;;2.1;1.5;;;;;;;4.84;68.69727;939.7431;;;;
2021/03/17 13:45:32;;;;;;;1.1;1;;;;;;;4.78;70.10645;939.796;;;;
2021/03/17 13:47:56;;;;;;;1.4;1;;;;;;;4.77;72.12109;939.7861;;;;
2021/03/17 13:50:21;;;;;;;1.2;0.8;;;;;;;4.82;72.61328;939.7991;;;;
2021/03/17 13:52:47;;;;;;;2.8;1.4;;;;;;;4.79;71.16699;939.7411;;;;
2021/03/17 13:55:13;;;;;;;1.2;1;;;;;;;4.24;72.08789;939.7366;;;;
2021/03/17 13:57:37;;;;;;;2.2;0.9;;;;;;;4.02;73.76953;939.7244;;;;
2021/03/17 14:00:02;;;;;;;2.8;1.5;;;;;;;4.17;74.87695;939.7433;;;;
2021/03/17 14:02:27;;;;;;;2.7;1.5;;;;;;;4.35;73.88574;939.7658;;;;
2021/03/17 14:04:52;;;;;;;1.4;1.2;;;;;;;3.97;73.62695;939.7798;;;;
2021/03/17 14:07:17;;;;;;;2.7;1.4;;;;;;;3.7;76.05371;939.7242;;;;
2021/03/17 14:09:42;;;;;;;3.3;1.4;;;;;;;3.99;75.90137;939.6923;;;;
2021/03/17 14:12:10;;;;;;;3.1;1.5;;;;;;;3.89;75.19824;939.7204;;;;
2021/03/17 14:14:35;;;;;;;2.1;1.6;;;;;;;3.97;76.75293;939.7026;;;;
2021/03/17 14:17:00;;;;;;;1.9;0.9;;;;;;;3.72;76.59473;939.7327;;;;
2021/03/17 14:19:25;;;;;;;1.6;1;;;;;;;3.78;77.02246;939.6215;;;;
2021/03/17 14:21:51;;;;;;;5.1;2.2;;;;;;;3.93;76.49805;939.7043;;;;
2021/03/17 14:24:16;;;;;;;2.3;1.8;;;;;;;4.1;75.95508;939.6785;;;;
2021/03/17 14:26:42;;;;;;;4.6;2.1;;;;;;;4.41;74.52539;939.6255;;;;
2021/03/17 14:29:07;;;;;;;3;1.8;;;;;;;4.62;73.06348;939.6225;;;;